Подгорица, Albania

26. септембар 2017, 20:15 CEST (GMT +0200)
Podgorica | | Change Station

Надм.вис. 174 ft 42.36 °N, 19.25 °E | Updated 15 minutes ago

Ведро
Ведро
66 °F
Субјективни осећај 66 °F
С
2
Ветар Променљив Ветар из Променљив

Данас
Макс. -- | Мин. -- °F
--% Вероватноћа за падавине
Јуче
Макс. -- | Мин. -- °F
Precip. -- инч
Притисак 30.06 инч
Видљивост -9999.0 миља
Облаци
Тачка росе 57 °F
Влажност ваздуха 73%
Киша 0.00 инч
Висина снега Није доступно.
6:33 AM 6:32 PM
Прва четвртина, 37% visible
METAR LYPG 261800Z VRB02KT CAVOK 19/14 Q1018 NOSIG
Притисак 30.06 инч
Видљивост -9999.0 миља
Облаци
Тачка росе 57 °F
Влажност ваздуха 73%
Киша 0.00 инч
Висина снега Није доступно.
6:33 AM 6:32 PM
Прва четвртина, 37% visible
METAR LYPG 261800Z VRB02KT CAVOK 19/14 Q1018 NOSIG

Get Severe Weather Alerts

Thanks for signing up!

Be on the lookout for a verification email in your inbox.

You'll start receiving the daily forecast at 6 AM.

×

10-Day Weather Forecast

×

Almanac

Астрономија

Sep. 26, 2017 Излазак Залазак
Тренутно време
Цивилни сумрак
Наутички сумрак
Астрономски сумрак
Месец
Трајање видљиве светлости
Обданица
Tomorrow will be .
, % of the Moon is Illuminated

Данашњи екстреми

Највише Најниже

Community

Category 6

Welcome to Category 6. This is the collective home for Weather Underground's featured writeups by Dr. Jeff Masters (right), Bob Henson (left), Chris Burt, and other regular contributors.

Nearby

Квалитет ваздуха (AQ)

  Квалитет ваздуха (AQ) Индекс AQ Загађење
Not available.

Висина снега

станица Висина снега Висина

Земљотрес

Место Удаљеност Магнитуда Време и датум
Минимална магнитуда која се објављује је 2.5

Темп. воде у приобаљу

Место Температура

Stations

Оближње метео-станице

Локација станице Темп. Субјективни осећај Тачка росе Влажност ваздуха Ветар Precip. Надм.вис. Ажурирано Тип